createdAt,value
2017-11-13T00:01:13.925Z,13.82
2017-11-13T00:03:40.823Z,11.52
2017-11-13T00:06:08.672Z,11.35
2017-11-13T00:08:36.890Z,11.48
2017-11-13T00:11:03.783Z,15.63
2017-11-13T00:13:30.694Z,10.63
2017-11-13T00:15:57.575Z,11.23
2017-11-13T00:18:24.488Z,15.48
2017-11-13T00:20:51.370Z,10.70
2017-11-13T00:23:19.766Z,16.40
2017-11-13T00:25:48.366Z,16.25
2017-11-13T00:28:16.067Z,15.52
2017-11-13T00:30:42.958Z,10.88
2017-11-13T00:33:11.530Z,14.45
2017-11-13T00:35:38.446Z,14.60
2017-11-13T00:38:07.359Z,13.68
2017-11-13T00:40:34.276Z,12.50
2017-11-13T00:43:01.163Z,18.48
2017-11-13T00:45:28.831Z,19.27
2017-11-13T00:47:56.496Z,19.45
2017-11-13T00:50:25.077Z,18.77
2017-11-13T00:52:52.726Z,21.55
2017-11-13T00:55:20.391Z,13.85
2017-11-13T00:57:48.755Z,14.80
2017-11-13T01:00:15.670Z,12.63
2017-11-13T01:02:43.478Z,15.45
2017-11-13T01:05:11.148Z,17.02
2017-11-13T01:07:38.851Z,14.15
2017-11-13T01:10:05.762Z,15.52
2017-11-13T01:12:33.446Z,16.42
2017-11-13T01:15:00.354Z,18.10
2017-11-13T01:17:28.009Z,14.57
2017-11-13T01:19:56.670Z,24.75
2017-11-13T01:22:23.604Z,17.37
2017-11-13T01:24:50.510Z,17.45
2017-11-13T01:27:17.405Z,14.50
2017-11-13T01:29:44.290Z,22.90
2017-11-13T01:32:11.182Z,16.98
2017-11-13T01:34:38.078Z,19.08
2017-11-13T01:37:04.978Z,22.23
2017-11-13T01:39:31.873Z,22.85
2017-11-13T01:41:58.772Z,20.52
2017-11-13T01:44:27.693Z,14.43
2017-11-13T01:46:55.526Z,18.77
2017-11-13T01:49:22.414Z,14.30
2017-11-13T01:51:50.233Z,17.80
2017-11-13T01:54:17.118Z,15.15
2017-11-13T01:56:44.947Z,18.77
2017-11-13T01:59:11.829Z,17.65
2017-11-13T02:01:39.027Z,16.27
2017-11-13T02:04:06.701Z,17.75
2017-11-13T02:06:33.598Z,17.80
2017-11-13T02:09:00.482Z,22.13
2017-11-13T02:11:27.391Z,15.27
2017-11-13T02:13:55.190Z,20.60
2017-11-13T02:16:22.099Z,16.00
2017-11-13T02:18:49.889Z,16.00
2017-11-13T02:21:16.794Z,21.15
2017-11-13T02:23:43.680Z,19.58
2017-11-13T02:26:10.589Z,12.68
2017-11-13T02:28:37.465Z,13.50
2017-11-13T02:31:04.386Z,12.43
2017-11-13T02:33:31.271Z,17.40
2017-11-13T02:35:59.087Z,26.35
2017-11-13T02:38:25.989Z,27.33
2017-11-13T02:40:54.251Z,23.95
2017-11-13T02:43:21.152Z,16.55
2017-11-13T02:45:48.042Z,20.90
2017-11-13T02:48:15.898Z,19.90
2017-11-13T02:50:43.708Z,12.68
2017-11-13T02:53:10.610Z,17.45
2017-11-13T02:55:37.499Z,19.30
2017-11-13T02:58:04.394Z,19.10
2017-11-13T03:00:31.326Z,18.23
2017-11-13T03:02:58.222Z,18.30
2017-11-13T03:05:25.119Z,23.60
2017-11-13T03:07:52.019Z,14.75
2017-11-13T03:10:18.948Z,20.80
2017-11-13T03:12:46.606Z,17.37
2017-11-13T03:15:14.291Z,12.73
2017-11-13T03:17:41.185Z,20.23
2017-11-13T03:20:08.102Z,21.02
2017-11-13T03:22:35.016Z,16.35
2017-11-13T03:25:01.910Z,16.67
2017-11-13T03:27:29.517Z,21.30
2017-11-13T03:29:56.402Z,18.42
2017-11-13T03:32:24.086Z,16.73
2017-11-13T03:34:51.387Z,18.00
2017-11-13T03:37:18.298Z,18.35
2017-11-13T03:39:45.959Z,20.20
2017-11-13T03:42:13.638Z,13.82
2017-11-13T03:44:40.534Z,17.52
2017-11-13T03:47:08.209Z,22.05
2017-11-13T03:49:35.118Z,16.27
2017-11-13T03:52:02.003Z,15.30
2017-11-13T03:54:29.898Z,18.77
2017-11-13T03:56:56.794Z,20.23
2017-11-13T03:59:26.145Z,14.23
2017-11-13T04:01:53.027Z,16.95
2017-11-13T04:04:19.950Z,15.00
2017-11-13T04:06:46.829Z,14.07
2017-11-13T04:09:13.738Z,14.40
2017-11-13T04:11:40.618Z,17.23
2017-11-13T04:14:08.433Z,17.75
2017-11-13T04:16:36.057Z,15.98
2017-11-13T04:19:02.939Z,16.50
2017-11-13T04:21:30.784Z,15.75
2017-11-13T04:23:58.436Z,20.83
2017-11-13T04:26:26.111Z,14.98
2017-11-13T04:28:54.761Z,12.52
2017-11-13T04:31:21.668Z,17.62
2017-11-13T04:33:49.402Z,18.40
2017-11-13T04:36:17.990Z,16.08
2017-11-13T04:38:45.839Z,13.98
2017-11-13T04:41:19.439Z,17.02
2017-11-13T04:43:47.085Z,14.95
2017-11-13T04:46:14.762Z,18.05
2017-11-13T04:48:42.428Z,18.67
2017-11-13T04:51:11.001Z,18.23
2017-11-13T04:53:39.507Z,15.50
2017-11-13T04:56:06.400Z,20.25
2017-11-13T04:58:33.307Z,15.52
2017-11-13T05:01:00.186Z,17.70
2017-11-13T05:03:27.082Z,13.82
2017-11-13T05:05:53.973Z,15.75
2017-11-13T05:08:21.885Z,19.80
2017-11-13T05:10:48.771Z,14.80
2017-11-13T05:13:16.426Z,15.20
2017-11-13T05:15:43.312Z,13.70
2017-11-13T05:18:10.191Z,11.88
2017-11-13T05:20:37.917Z,22.60
2017-11-13T05:23:04.797Z,18.15
2017-11-13T05:25:32.491Z,15.85
2017-11-13T05:27:59.370Z,15.15
2017-11-13T05:30:26.289Z,19.02
2017-11-13T05:32:53.176Z,19.33
2017-11-13T05:35:21.795Z,22.85
2017-11-13T05:37:49.632Z,16.55
2017-11-13T05:40:16.554Z,16.95
2017-11-13T05:42:43.439Z,17.02
2017-11-13T05:45:10.340Z,20.55
2017-11-13T05:47:38.010Z,19.20
2017-11-13T05:50:06.618Z,18.10
2017-11-13T05:52:33.514Z,18.40
2017-11-13T05:55:00.397Z,15.13
2017-11-13T05:57:27.302Z,13.40
2017-11-13T05:59:55.346Z,19.35
2017-11-13T06:02:22.245Z,15.65
2017-11-13T06:04:49.907Z,17.02
2017-11-13T06:07:17.569Z,20.40
2017-11-13T06:09:46.072Z,20.30
2017-11-13T06:12:12.964Z,20.37
2017-11-13T06:14:39.884Z,14.20
2017-11-13T06:17:07.719Z,14.93
2017-11-13T06:19:34.606Z,13.90
2017-11-13T06:22:01.506Z,15.95
2017-11-13T06:24:28.403Z,13.20
2017-11-13T06:26:55.303Z,11.35
2017-11-13T06:29:22.192Z,19.25
2017-11-13T06:31:49.095Z,15.60
2017-11-13T06:34:15.985Z,20.80
2017-11-13T06:36:42.883Z,13.65
2017-11-13T06:39:09.763Z,15.18
2017-11-13T06:41:37.486Z,14.07
2017-11-13T06:44:04.365Z,9.85
2017-11-13T06:46:32.762Z,14.07
2017-11-13T06:49:01.330Z,11.05
2017-11-13T06:51:30.176Z,10.82
2017-11-13T06:53:57.319Z,16.80
2017-11-13T06:56:24.201Z,13.75
2017-11-13T06:58:52.619Z,14.90
2017-11-13T07:01:20.269Z,13.88
2017-11-13T07:03:47.935Z,10.43
2017-11-13T07:06:15.077Z,14.65
2017-11-13T07:08:43.549Z,14.63
2017-11-13T07:11:10.438Z,12.30
2017-11-13T07:13:38.537Z,9.88
2017-11-13T07:16:06.424Z,10.20
2017-11-13T07:18:35.129Z,19.87
2017-11-13T07:21:02.819Z,10.80
2017-11-13T07:23:29.718Z,7.80
2017-11-13T07:25:56.626Z,8.75
2017-11-13T07:28:23.536Z,14.07
2017-11-13T07:30:54.642Z,7.82
2017-11-13T07:33:22.695Z,10.68
2017-11-13T07:35:49.589Z,13.10
2017-11-13T07:38:18.261Z,9.63
2017-11-13T07:40:45.930Z,7.87
2017-11-13T07:43:13.590Z,9.02
2017-11-13T07:45:41.233Z,9.05
2017-11-13T07:48:12.484Z,14.80
2017-11-13T07:50:39.409Z,10.48
2017-11-13T07:53:06.310Z,11.50
2017-11-13T07:55:33.195Z,9.68
2017-11-13T07:58:01.010Z,9.25
2017-11-13T08:00:30.811Z,8.85
2017-11-13T08:03:01.518Z,10.00
2017-11-13T08:05:28.401Z,8.43
2017-11-13T08:07:56.109Z,16.25
2017-11-13T08:10:23.804Z,11.65
2017-11-13T08:12:51.449Z,10.50
2017-11-13T08:15:19.063Z,15.98
2017-11-13T08:17:46.883Z,13.52
2017-11-13T08:20:14.542Z,10.88
2017-11-13T08:22:41.447Z,11.55
2017-11-13T08:25:08.371Z,8.02
2017-11-13T08:27:35.249Z,6.07
2017-11-13T08:30:02.957Z,13.93
2017-11-13T08:32:33.553Z,7.15
2017-11-13T08:35:01.427Z,6.10
2017-11-13T08:37:30.810Z,9.45
2017-11-13T08:40:02.359Z,10.90
2017-11-13T08:42:29.262Z,10.32
2017-11-13T08:44:56.160Z,9.27
2017-11-13T08:47:23.102Z,9.98
2017-11-13T08:49:49.991Z,9.75
2017-11-13T08:52:19.593Z,6.80
2017-11-13T08:54:48.387Z,7.22
2017-11-13T08:57:15.277Z,9.38
2017-11-13T08:59:42.163Z,10.10
2017-11-13T09:02:10.764Z,9.55
2017-11-13T09:04:37.666Z,7.25
2017-11-13T09:07:04.551Z,6.60
2017-11-13T09:09:32.300Z,14.32
2017-11-13T09:12:01.630Z,7.60
2017-11-13T09:14:28.690Z,12.07
2017-11-13T09:16:56.278Z,10.98
2017-11-13T09:19:23.279Z,15.90
2017-11-13T09:21:50.174Z,16.35
2017-11-13T09:24:17.070Z,8.07
2017-11-13T09:26:44.759Z,7.07
2017-11-13T09:29:12.641Z,8.45
2017-11-13T09:31:39.530Z,6.37
2017-11-13T09:34:06.437Z,7.78
2017-11-13T09:36:33.326Z,15.35
2017-11-13T09:39:00.222Z,9.10
2017-11-13T09:41:27.161Z,9.80
2017-11-13T09:43:55.086Z,10.50
2017-11-13T09:46:22.023Z,8.68
2017-11-13T09:48:49.898Z,11.27
2017-11-13T09:51:16.833Z,9.85
2017-11-13T09:53:44.560Z,8.95
2017-11-13T09:56:12.327Z,18.70
2017-11-13T09:58:40.052Z,5.25
2017-11-13T10:01:07.839Z,12.93
2017-11-13T10:03:34.851Z,5.50
2017-11-13T10:06:02.749Z,7.70
2017-11-13T10:08:30.397Z,16.27
2017-11-13T10:10:58.142Z,6.05
2017-11-13T10:13:25.670Z,5.03
2017-11-13T10:15:52.644Z,8.48
2017-11-13T10:18:20.381Z,7.82
2017-11-13T10:20:47.342Z,12.02
2017-11-13T10:23:15.203Z,6.45
2017-11-13T10:25:43.081Z,14.75
2017-11-13T10:28:10.934Z,7.43
2017-11-13T10:30:37.895Z,6.80
2017-11-13T10:33:04.851Z,4.97
2017-11-13T10:35:32.599Z,11.35
2017-11-13T10:38:00.350Z,7.43
2017-11-13T10:40:27.307Z,8.80
2017-11-13T10:42:55.166Z,6.25
2017-11-13T10:45:22.125Z,5.07
2017-11-13T10:47:49.060Z,4.32
2017-11-13T10:50:15.991Z,4.35
2017-11-13T10:52:42.952Z,18.80
2017-11-13T10:55:09.909Z,5.55
2017-11-13T10:57:36.866Z,5.50
2017-11-13T11:00:05.093Z,6.40
2017-11-13T11:02:32.066Z,5.10
2017-11-13T11:04:59.012Z,5.85
2017-11-13T11:07:25.966Z,7.20
2017-11-13T11:09:52.914Z,7.40
2017-11-13T11:12:20.836Z,4.45
2017-11-13T11:14:47.790Z,10.52
2017-11-13T11:17:14.741Z,4.70
2017-11-13T11:19:41.687Z,3.85
2017-11-13T11:22:09.562Z,8.60
2017-11-13T11:24:38.454Z,7.20
2017-11-13T11:27:06.208Z,3.12
2017-11-13T11:29:33.192Z,5.25
2017-11-13T11:32:01.142Z,5.90
2017-11-13T11:34:28.876Z,3.15
2017-11-13T11:36:55.931Z,6.68
2017-11-13T11:39:22.875Z,4.20
2017-11-13T11:41:49.837Z,5.37
2017-11-13T11:44:16.778Z,6.82
2017-11-13T11:46:44.779Z,5.15
2017-11-13T11:49:13.690Z,4.32
2017-11-13T11:51:41.402Z,9.00
2017-11-13T11:54:08.373Z,6.78
2017-11-13T11:56:35.329Z,6.32
2017-11-13T11:59:02.851Z,5.62
2017-11-13T12:01:29.821Z,7.53
2017-11-13T12:03:56.821Z,7.03
2017-11-13T12:06:23.819Z,4.03
2017-11-13T12:08:50.773Z,6.22
2017-11-13T12:11:17.741Z,10.77
2017-11-13T12:13:44.712Z,6.18
2017-11-13T12:16:13.201Z,5.10
2017-11-13T12:18:40.161Z,4.85
2017-11-13T12:21:07.919Z,6.07
2017-11-13T12:23:34.881Z,5.00
2017-11-13T12:26:01.830Z,6.78
2017-11-13T12:28:28.806Z,4.57
2017-11-13T12:30:57.527Z,9.80
2017-11-13T12:33:24.593Z,4.07
2017-11-13T12:35:51.540Z,4.97
2017-11-13T12:38:18.501Z,4.50
2017-11-13T12:40:47.866Z,4.75
2017-11-13T12:43:14.822Z,8.50
2017-11-13T12:45:41.774Z,4.70
2017-11-13T12:48:09.643Z,4.40
2017-11-13T12:50:36.599Z,12.13
2017-11-13T12:53:04.468Z,1.67
2017-11-13T12:55:31.618Z,3.10
2017-11-13T12:58:00.604Z,1.12
2017-11-13T13:00:27.578Z,5.12
2017-11-13T13:02:54.526Z,7.50
2017-11-13T13:05:23.495Z,3.53
2017-11-13T13:07:50.476Z,6.80
2017-11-13T13:10:18.211Z,6.12
2017-11-13T13:12:45.159Z,1.40
2017-11-13T13:15:12.111Z,3.33
2017-11-13T13:17:39.834Z,1.87
2017-11-13T13:20:07.798Z,1.00
2017-11-13T13:22:34.729Z,4.18
2017-11-13T13:25:01.730Z,3.33
2017-11-13T13:27:28.924Z,4.47
2017-11-13T13:29:55.881Z,3.55
2017-11-13T13:32:23.034Z,4.80
2017-11-13T13:34:50.071Z,2.58
2017-11-13T13:37:17.038Z,7.53
2017-11-13T13:39:44.012Z,2.87
2017-11-13T13:42:17.678Z,2.83
2017-11-13T13:44:44.654Z,2.25
2017-11-13T13:47:11.600Z,3.00
2017-11-13T13:49:38.542Z,3.83
2017-11-13T13:52:05.502Z,2.05
2017-11-13T13:54:33.348Z,3.35
2017-11-13T13:57:00.332Z,4.15
2017-11-13T13:59:28.045Z,8.88
2017-11-13T14:01:54.989Z,9.95
2017-11-13T14:04:22.710Z,3.40
2017-11-13T14:06:49.668Z,2.35
2017-11-13T14:09:17.414Z,1.37
2017-11-13T14:11:44.382Z,2.35
2017-11-13T14:14:12.131Z,2.17
2017-11-13T14:16:39.118Z,2.92
2017-11-13T14:19:06.070Z,2.08
2017-11-13T14:21:33.815Z,2.45
2017-11-13T14:24:01.575Z,1.70
2017-11-13T14:26:28.530Z,6.18
2017-11-13T14:28:55.488Z,4.18
2017-11-13T14:31:22.917Z,2.75
2017-11-13T14:33:50.783Z,4.18
2017-11-13T14:36:17.735Z,4.20
2017-11-13T14:38:44.684Z,8.57
2017-11-13T14:41:11.628Z,6.10
2017-11-13T14:43:39.178Z,3.08
2017-11-13T14:46:06.934Z,4.45
2017-11-13T14:48:33.896Z,3.62
2017-11-13T14:51:00.890Z,6.85
2017-11-13T14:53:27.861Z,4.20
2017-11-13T14:55:57.076Z,5.93
2017-11-13T14:58:25.026Z,4.40
2017-11-13T15:00:51.974Z,6.82
2017-11-13T15:03:18.937Z,10.75
2017-11-13T15:05:46.552Z,6.55
2017-11-13T15:08:14.219Z,5.87
2017-11-13T15:10:41.958Z,5.57
2017-11-13T15:13:09.676Z,7.18
2017-11-13T15:15:37.479Z,3.85
2017-11-13T15:18:04.373Z,7.35
2017-11-13T15:20:31.270Z,4.07
2017-11-13T15:22:58.242Z,9.35
2017-11-13T15:25:26.498Z,5.25
2017-11-13T15:28:04.701Z,7.22
2017-11-13T15:30:36.328Z,9.40
2017-11-13T15:33:03.229Z,8.30
2017-11-13T15:35:31.829Z,6.55
2017-11-13T15:38:01.400Z,12.50
2017-11-13T15:40:34.049Z,8.20
2017-11-13T15:43:01.859Z,8.32
2017-11-13T15:45:30.506Z,11.65
2017-11-13T15:47:57.410Z,7.05
2017-11-13T15:50:25.212Z,13.13
2017-11-13T15:52:52.140Z,7.10
2017-11-13T15:55:19.843Z,5.72
2017-11-13T15:57:46.738Z,6.47
2017-11-13T16:00:15.559Z,7.50
2017-11-13T16:02:43.457Z,5.22
2017-11-13T16:05:11.941Z,8.63
2017-11-13T16:07:39.616Z,6.15
2017-11-13T16:10:06.507Z,11.93
2017-11-13T16:12:33.449Z,7.35
2017-11-13T16:15:01.118Z,5.70
2017-11-13T16:17:28.025Z,9.70
2017-11-13T16:19:54.907Z,8.60
2017-11-13T16:22:21.803Z,10.90
2017-11-13T16:24:48.682Z,11.95
2017-11-13T16:27:15.577Z,7.80
2017-11-13T16:29:42.603Z,8.00
2017-11-13T16:32:10.254Z,8.75
2017-11-13T16:34:38.111Z,5.57
2017-11-13T16:37:05.956Z,5.95
2017-11-13T16:39:33.664Z,8.20
2017-11-13T16:42:02.759Z,7.40
2017-11-13T16:44:52.920Z,7.85
2017-11-13T16:47:19.862Z,6.37
2017-11-13T16:49:47.543Z,4.62
2017-11-13T16:54:59.943Z,8.00
2017-11-13T16:57:27.333Z,7.28
2017-11-13T16:59:54.982Z,9.55
2017-11-13T17:02:29.618Z,5.95
2017-11-13T17:04:56.555Z,5.90
2017-11-13T17:07:27.004Z,6.95
2017-11-13T17:09:53.903Z,5.43
2017-11-13T17:12:22.843Z,4.75
2017-11-13T17:14:50.637Z,4.10
2017-11-13T17:17:18.551Z,8.60
2017-11-13T17:19:45.443Z,6.82
2017-11-13T17:22:14.141Z,6.20
2017-11-13T17:24:41.026Z,8.07
2017-11-13T17:27:09.742Z,11.40
2017-11-13T17:29:36.640Z,8.95
2017-11-13T17:32:03.541Z,7.20
2017-11-13T17:34:31.341Z,12.63
2017-11-13T17:36:59.209Z,9.68
2017-11-13T17:39:26.964Z,11.73
2017-11-13T17:41:54.795Z,10.23
2017-11-13T17:44:25.336Z,8.10
2017-11-13T17:46:52.239Z,10.50
2017-11-13T17:49:21.816Z,9.98
2017-11-13T17:51:48.739Z,10.80
2017-11-13T17:54:15.634Z,16.37
2017-11-13T17:56:43.299Z,10.45
2017-11-13T17:59:10.960Z,11.18
2017-11-13T18:01:38.628Z,8.70
2017-11-13T18:04:06.414Z,10.55
2017-11-13T18:06:34.233Z,8.77
2017-11-13T18:09:02.943Z,6.82
2017-11-13T18:11:33.046Z,7.40
2017-11-13T18:14:02.634Z,8.05
2017-11-13T18:16:33.670Z,14.65
2017-11-13T18:19:00.549Z,10.00
2017-11-13T18:21:27.465Z,11.82
2017-11-13T18:23:54.362Z,8.02
2017-11-13T18:26:21.250Z,9.27
2017-11-13T18:28:48.144Z,8.48
2017-11-13T18:31:15.027Z,12.88
2017-11-13T18:33:41.972Z,9.85
2017-11-13T18:36:09.784Z,12.30
2017-11-13T18:38:36.754Z,12.15
2017-11-13T18:41:03.633Z,8.80
2017-11-13T18:43:30.527Z,11.95
2017-11-13T18:45:58.347Z,9.80
2017-11-13T18:48:27.291Z,8.80
2017-11-13T18:50:54.172Z,8.25
2017-11-13T18:53:21.841Z,13.88
2017-11-13T18:55:48.729Z,10.85
2017-11-13T18:58:16.559Z,10.43
2017-11-13T19:00:43.443Z,9.05
2017-11-13T19:03:11.265Z,7.22
2017-11-13T19:05:38.181Z,10.52
2017-11-13T19:08:05.105Z,8.55
2017-11-13T19:10:31.990Z,8.55
2017-11-13T19:12:58.895Z,7.93
2017-11-13T19:15:25.795Z,10.48
2017-11-13T19:17:58.562Z,17.75
2017-11-13T19:20:25.459Z,14.38
2017-11-13T19:22:52.363Z,15.32
2017-11-13T19:25:20.021Z,13.88
2017-11-13T19:27:46.922Z,14.65
2017-11-13T19:30:13.816Z,13.13
2017-11-13T19:32:41.672Z,16.10
2017-11-13T19:35:09.366Z,11.48
2017-11-13T19:37:36.287Z,15.50
2017-11-13T19:40:03.965Z,15.60
2017-11-13T19:42:30.867Z,11.05
2017-11-13T19:44:58.736Z,15.52
2017-11-13T19:47:27.644Z,13.98
2017-11-13T19:49:55.302Z,13.90
2017-11-13T19:52:22.971Z,16.52
2017-11-13T19:54:52.570Z,13.95
2017-11-13T19:57:19.463Z,13.20
2017-11-13T19:59:48.380Z,15.68
2017-11-13T20:02:15.287Z,13.35
2017-11-13T20:04:42.220Z,11.90
2017-11-13T20:07:10.043Z,20.37
2017-11-13T20:09:36.994Z,13.55
2017-11-13T20:12:03.898Z,13.50
2017-11-13T20:14:31.826Z,16.92
2017-11-13T20:16:59.505Z,15.25
2017-11-13T20:19:26.422Z,14.55
2017-11-13T20:21:54.428Z,18.30
2017-11-13T20:24:21.361Z,16.67
2017-11-13T20:26:48.255Z,17.67
2017-11-13T20:29:15.935Z,16.12
2017-11-13T20:31:42.836Z,16.35
2017-11-13T20:34:09.758Z,20.42
2017-11-13T20:36:38.639Z,19.05
2017-11-13T20:39:06.557Z,20.17
2017-11-13T20:41:33.450Z,17.05
2017-11-13T20:44:00.351Z,19.58
2017-11-13T20:46:28.160Z,21.60
2017-11-13T20:48:55.070Z,16.87
2017-11-13T20:51:21.979Z,18.98
2017-11-13T20:53:49.903Z,11.10
2017-11-13T20:56:17.563Z,11.82
2017-11-13T20:58:46.150Z,14.48
2017-11-13T21:01:13.810Z,15.77
2017-11-13T21:03:41.707Z,12.35
2017-11-13T21:06:08.620Z,14.10
2017-11-13T21:08:36.363Z,14.90
2017-11-13T21:11:03.277Z,13.98
2017-11-13T21:13:30.195Z,11.77
2017-11-13T21:15:57.082Z,11.65
2017-11-13T21:18:23.988Z,13.45
2017-11-13T21:20:50.884Z,8.85
2017-11-13T21:23:18.789Z,18.23
2017-11-13T21:25:45.722Z,23.38
2017-11-13T21:28:13.428Z,12.48
2017-11-13T21:30:40.344Z,10.57
2017-11-13T21:33:07.263Z,14.70
2017-11-13T21:35:35.146Z,12.60
2017-11-13T21:38:02.074Z,13.52
2017-11-13T21:40:29.770Z,8.85
2017-11-13T21:42:57.655Z,15.82
2017-11-13T21:45:24.551Z,17.15
2017-11-13T21:47:52.269Z,14.35
2017-11-13T21:50:19.924Z,15.25
2017-11-13T21:52:46.820Z,13.05
2017-11-13T21:55:14.494Z,14.00
2017-11-13T21:57:41.415Z,12.95
2017-11-13T22:00:09.083Z,16.60
2017-11-13T22:02:36.747Z,12.05
2017-11-13T22:05:04.395Z,17.10
2017-11-13T22:07:31.303Z,12.85
2017-11-13T22:09:58.194Z,17.35
2017-11-13T22:12:25.988Z,13.77
2017-11-13T22:14:53.403Z,12.10
2017-11-13T22:17:20.295Z,11.65
2017-11-13T22:19:47.196Z,10.57
2017-11-13T22:22:14.846Z,8.40
2017-11-13T22:24:47.150Z,10.57
2017-11-13T22:27:16.013Z,10.43
2017-11-13T22:29:42.930Z,9.85
2017-11-13T22:32:10.725Z,8.73
2017-11-13T22:34:37.634Z,13.40
2017-11-13T22:37:04.560Z,8.65
2017-11-13T22:39:31.479Z,11.60
2017-11-13T22:41:58.373Z,9.88
2017-11-13T22:44:25.300Z,12.32
2017-11-13T22:46:53.195Z,12.25
2017-11-13T22:49:20.111Z,9.25
2017-11-13T22:51:47.016Z,19.77
2017-11-13T22:54:15.910Z,9.95
2017-11-13T22:56:42.820Z,10.27
2017-11-13T22:59:09.708Z,11.20
2017-11-13T23:01:36.634Z,8.40
2017-11-13T23:04:05.325Z,9.52
2017-11-13T23:06:32.230Z,9.00
2017-11-13T23:08:59.139Z,14.57
2017-11-13T23:11:26.287Z,7.90
2017-11-13T23:13:54.051Z,13.52
2017-11-13T23:16:20.942Z,9.32
2017-11-13T23:18:47.848Z,9.95
2017-11-13T23:21:14.751Z,8.02
2017-11-13T23:23:42.442Z,8.45
2017-11-13T23:26:09.337Z,12.40
2017-11-13T23:28:37.228Z,6.57
2017-11-13T23:31:04.132Z,7.07
2017-11-13T23:33:31.044Z,10.05
2017-11-13T23:35:59.882Z,10.05
2017-11-13T23:38:27.751Z,13.38
2017-11-13T23:40:55.410Z,12.48
2017-11-13T23:43:22.320Z,7.57
2017-11-13T23:45:49.222Z,10.40
2017-11-13T23:48:16.137Z,10.02
2017-11-13T23:50:43.803Z,9.93
2017-11-13T23:53:10.728Z,9.00
2017-11-13T23:55:37.741Z,7.10
2017-11-13T23:58:04.656Z,10.25
